createdAt,value
2018-01-08T00:00:06.350Z,6.29
2018-01-08T00:02:35.449Z,6.45
2018-01-08T00:05:04.515Z,6.44
2018-01-08T00:07:33.552Z,6.44
2018-01-08T00:10:08.226Z,6.37
2018-01-08T00:12:37.302Z,6.27
2018-01-08T00:17:42.453Z,6.48
2018-01-08T00:20:11.542Z,6.35
2018-01-08T00:22:40.578Z,6.38
2018-01-08T00:25:20.378Z,6.44
2018-01-08T00:27:56.110Z,6.41
2018-01-08T00:30:25.124Z,6.25
2018-01-08T00:32:58.825Z,6.21
2018-01-08T00:35:27.858Z,6.25
2018-01-08T00:38:01.454Z,6.21
2018-01-08T00:40:30.502Z,6.06
2018-01-08T00:45:34.797Z,6.33
2018-01-08T00:48:15.530Z,6.31
2018-01-08T00:50:48.380Z,6.22
2018-01-08T00:56:01.662Z,6.30
2018-01-08T00:58:30.690Z,6.17
2018-01-08T01:00:59.790Z,6.17
2018-01-08T01:03:28.887Z,6.11
2018-01-08T01:06:03.172Z,6.09
2018-01-08T01:08:32.252Z,6.20
2018-01-08T01:11:01.279Z,6.24
2018-01-08T01:13:30.336Z,6.19
2018-01-08T01:15:59.466Z,6.17
2018-01-08T01:18:38.155Z,6.07
2018-01-08T01:21:07.198Z,6.15
2018-01-08T01:23:38.254Z,6.30
2018-01-08T01:26:08.254Z,6.26
2018-01-08T01:28:40.734Z,6.11
2018-01-08T01:31:15.380Z,6.03
2018-01-08T01:33:45.363Z,5.95
2018-01-08T01:36:14.386Z,6.03
2018-01-08T01:38:45.346Z,6.09
2018-01-08T01:41:28.817Z,6.09
2018-01-08T01:43:57.878Z,6.03
2018-01-08T01:49:20.850Z,6.14
2018-01-08T01:51:49.886Z,6.13
2018-01-08T01:54:18.948Z,6.10
2018-01-08T01:56:47.993Z,6.03
2018-01-08T01:59:18.940Z,6.11
2018-01-08T02:01:47.987Z,5.98
2018-01-08T02:06:52.255Z,5.95
2018-01-08T02:09:21.293Z,5.75
2018-01-08T02:11:50.492Z,5.77
2018-01-08T02:14:34.590Z,5.71
2018-01-08T02:17:03.646Z,5.82
2018-01-08T02:19:34.674Z,5.86
2018-01-08T02:22:03.704Z,5.83
2018-01-08T02:27:07.939Z,5.88
2018-01-08T02:29:40.993Z,5.85
2018-01-08T02:32:11.059Z,5.88
2018-01-08T02:37:15.280Z,5.89
2018-01-08T02:39:49.125Z,5.87
2018-01-08T02:42:18.170Z,5.92
2018-01-08T02:44:55.034Z,5.88
2018-01-08T02:47:24.098Z,6.01
2018-01-08T02:50:01.848Z,6.01
2018-01-08T02:52:35.434Z,5.95
2018-01-08T02:55:08.314Z,5.89
2018-01-08T02:57:37.355Z,5.97
2018-01-08T03:03:07.574Z,5.94
2018-01-08T03:05:47.078Z,5.94
2018-01-08T03:08:16.117Z,5.84
2018-01-08T03:11:00.549Z,5.86
2018-01-08T03:13:36.891Z,5.91
2018-01-08T03:16:07.850Z,5.88
2018-01-08T03:18:38.878Z,5.96
2018-01-08T03:21:07.936Z,5.93
2018-01-08T03:23:44.341Z,5.83
2018-01-08T03:26:13.394Z,5.95
2018-01-08T03:28:46.130Z,5.98
2018-01-08T03:31:15.184Z,5.89
2018-01-08T03:33:53.020Z,5.76
2018-01-08T03:36:22.069Z,5.75
2018-01-08T03:41:26.324Z,5.95
2018-01-08T03:44:08.333Z,5.97
2018-01-08T03:46:37.377Z,5.93
2018-01-08T03:49:08.342Z,5.97
2018-01-08T03:52:09.128Z,5.92
2018-01-08T03:54:38.151Z,5.90
2018-01-08T03:57:13.827Z,5.86
2018-01-08T04:00:07.605Z,5.78
2018-01-08T04:05:32.882Z,5.75
2018-01-08T04:08:13.097Z,5.76
2018-01-08T04:13:18.298Z,5.98
2018-01-08T04:15:47.394Z,5.88
2018-01-08T04:18:17.338Z,5.84
2018-01-08T04:20:46.377Z,5.77
2018-01-08T04:25:51.632Z,6.14
2018-01-08T04:28:21.691Z,6.13
2018-01-08T04:30:54.541Z,6.01
2018-01-08T04:33:23.602Z,5.91
2018-01-08T04:35:52.649Z,5.95
2018-01-08T04:38:25.010Z,5.98
2018-01-08T04:40:54.074Z,6.00
2018-01-08T04:43:23.173Z,5.98
2018-01-08T04:45:52.224Z,5.92
2018-01-08T04:48:22.241Z,5.84
2018-01-08T04:50:51.286Z,5.88
2018-01-08T04:53:21.321Z,5.93
2018-01-08T04:58:25.514Z,5.98
2018-01-08T05:01:08.203Z,5.88
2018-01-08T05:03:37.252Z,5.91
2018-01-08T05:06:21.103Z,5.93
2018-01-08T05:08:50.169Z,5.97
2018-01-08T05:11:24.246Z,5.89
2018-01-08T05:13:55.848Z,5.90
2018-01-08T05:16:25.826Z,5.91
2018-01-08T05:18:54.881Z,5.78
2018-01-08T05:21:23.930Z,5.61
2018-01-08T05:23:52.958Z,5.74
2018-01-08T05:26:25.090Z,5.79
2018-01-08T05:29:02.138Z,5.77
2018-01-08T05:31:34.658Z,5.71
2018-01-08T05:34:04.662Z,5.63
2018-01-08T05:36:33.718Z,5.71
2018-01-08T05:39:02.763Z,5.61
2018-01-08T05:41:31.798Z,5.63
2018-01-08T05:44:14.533Z,5.55
2018-01-08T05:46:43.570Z,5.52
2018-01-08T05:49:25.459Z,5.58
2018-01-08T05:52:22.022Z,5.54
2018-01-08T05:54:51.044Z,5.44
2018-01-08T05:57:20.098Z,5.40
2018-01-08T05:59:49.138Z,5.49
2018-01-08T06:02:18.190Z,5.52
2018-01-08T06:04:47.247Z,5.53
2018-01-08T06:09:51.459Z,5.68
2018-01-08T06:12:22.514Z,5.66
2018-01-08T06:14:51.541Z,5.78
2018-01-08T06:19:55.827Z,5.97
2018-01-08T06:22:24.980Z,5.67
2018-01-08T06:24:54.038Z,5.57
2018-01-08T06:27:30.472Z,5.63
2018-01-08T06:29:59.522Z,5.65
2018-01-08T06:32:28.566Z,5.73
2018-01-08T06:34:57.634Z,5.52
2018-01-08T06:37:26.723Z,5.40
2018-01-08T06:39:55.769Z,5.43
2018-01-08T06:42:24.829Z,5.52
2018-01-08T06:44:53.923Z,5.44
2018-01-08T06:47:22.962Z,5.44
2018-01-08T06:49:52.003Z,5.42
2018-01-08T06:54:56.261Z,5.44
2018-01-08T06:57:25.306Z,5.56
2018-01-08T06:59:54.348Z,5.54
2018-01-08T07:02:25.382Z,5.47
2018-01-08T07:04:54.401Z,5.42
2018-01-08T07:07:36.418Z,5.44
2018-01-08T07:10:05.497Z,5.41
2018-01-08T07:12:34.570Z,5.55
2018-01-08T07:15:03.590Z,5.50
2018-01-08T07:17:32.641Z,5.35
2018-01-08T07:20:02.610Z,5.32
2018-01-08T07:25:07.673Z,5.45
2018-01-08T07:27:36.858Z,5.56
2018-01-08T07:30:06.156Z,5.41
2018-01-08T07:32:36.044Z,5.35
2018-01-08T07:35:05.104Z,5.48
2018-01-08T07:37:34.151Z,5.68
2018-01-08T07:40:06.806Z,5.65
2018-01-08T07:42:39.490Z,5.57
2018-01-08T07:45:08.587Z,5.72
2018-01-08T07:47:37.671Z,5.68
2018-01-08T07:50:10.802Z,5.75
2018-01-08T07:52:43.574Z,5.57
2018-01-08T07:55:13.572Z,5.26
2018-01-08T07:57:47.314Z,5.33
2018-01-08T08:00:18.259Z,5.38
2018-01-08T08:02:47.318Z,5.29
2018-01-08T08:05:16.350Z,5.35
2018-01-08T08:10:20.686Z,5.84
2018-01-08T08:12:55.082Z,5.72
2018-01-08T08:15:26.018Z,5.60
2018-01-08T08:20:30.292Z,5.81
2018-01-08T08:23:05.200Z,5.72
2018-01-08T08:25:34.247Z,5.61
2018-01-08T08:28:07.885Z,5.62
2018-01-08T08:30:36.927Z,5.44
2018-01-08T08:33:05.963Z,5.58
2018-01-08T08:35:36.929Z,5.59
2018-01-08T08:38:14.486Z,5.69
2018-01-08T08:40:45.541Z,5.44
2018-01-08T08:43:14.574Z,5.53
2018-01-08T08:45:43.613Z,5.89
2018-01-08T08:50:55.946Z,5.90
2018-01-08T08:53:24.946Z,5.72
2018-01-08T08:58:38.174Z,5.89
2018-01-08T09:03:42.622Z,5.86
2018-01-08T09:06:15.664Z,5.84
2018-01-08T09:08:44.698Z,5.80
2018-01-08T09:11:14.810Z,5.88
2018-01-08T09:13:43.858Z,5.91
2018-01-08T09:16:20.649Z,5.76
2018-01-08T09:18:49.681Z,5.86
2018-01-08T09:21:19.671Z,5.76
2018-01-08T09:23:48.710Z,5.75
2018-01-08T09:28:52.930Z,5.79
2018-01-08T09:31:22.934Z,5.84
2018-01-08T09:33:51.971Z,5.80
2018-01-08T09:38:56.199Z,5.87
2018-01-08T09:41:26.203Z,6.07
2018-01-08T09:43:55.924Z,6.29
2018-01-08T09:49:03.282Z,6.67
2018-01-08T09:51:35.887Z,6.63
2018-01-08T09:54:04.969Z,6.65
2018-01-08T09:59:11.070Z,7.00
2018-01-08T10:01:40.120Z,6.93
2018-01-08T10:04:35.943Z,6.96
2018-01-08T10:07:31.108Z,6.79
2018-01-08T10:12:55.415Z,6.92
2018-01-08T10:15:43.204Z,6.92
2018-01-08T10:18:26.169Z,7.21
2018-01-08T10:20:56.159Z,6.94
2018-01-08T10:23:27.730Z,6.91
2018-01-08T10:25:57.917Z,6.92
2018-01-08T10:28:26.961Z,6.67
2018-01-08T10:30:56.051Z,6.91
2018-01-08T10:33:42.860Z,6.57
2018-01-08T10:36:12.748Z,6.65
2018-01-08T10:38:41.762Z,7.33
2018-01-08T10:43:53.147Z,8.18
2018-01-08T10:46:28.770Z,7.57
2018-01-08T10:49:03.233Z,7.02
2018-01-08T10:54:19.439Z,7.19
2018-01-08T10:56:48.497Z,7.53
2018-01-08T10:59:17.497Z,7.62
2018-01-08T11:01:55.910Z,8.01
2018-01-08T11:04:24.982Z,8.63
2018-01-08T11:06:55.970Z,8.87
2018-01-08T11:09:27.671Z,8.71
2018-01-08T11:14:32.881Z,8.95
2018-01-08T11:17:05.610Z,8.50
2018-01-08T11:19:35.830Z,7.99
2018-01-08T11:22:04.837Z,7.91
2018-01-08T11:24:34.794Z,7.85
2018-01-08T11:27:04.532Z,7.39
2018-01-08T11:29:33.549Z,7.57
2018-01-08T11:32:02.613Z,7.61
2018-01-08T11:34:38.078Z,7.75
2018-01-08T11:37:07.930Z,7.28
2018-01-08T11:39:44.029Z,7.19
2018-01-08T11:42:14.174Z,7.15
2018-01-08T11:44:50.731Z,7.38
2018-01-08T11:47:19.809Z,8.23
2018-01-08T11:49:50.109Z,8.95
2018-01-08T11:52:19.150Z,9.03
2018-01-08T11:54:51.486Z,9.24
2018-01-08T11:57:24.541Z,10.45
2018-01-08T11:59:53.931Z,10.93
2018-01-08T12:02:22.973Z,9.68
2018-01-08T12:04:54.960Z,8.57
2018-01-08T12:07:23.978Z,8.26
2018-01-08T12:09:53.095Z,9.05
2018-01-08T12:12:27.283Z,8.48
2018-01-08T12:14:58.506Z,8.32
2018-01-08T12:17:36.910Z,8.07
2018-01-08T12:20:06.973Z,7.99
2018-01-08T12:22:46.781Z,8.00
2018-01-08T12:25:15.833Z,8.54
2018-01-08T12:27:47.772Z,8.53
2018-01-08T12:30:16.805Z,9.02
2018-01-08T12:32:45.862Z,9.65
2018-01-08T12:35:18.306Z,11.14
2018-01-08T12:37:47.321Z,12.06
2018-01-08T12:40:19.218Z,11.53
2018-01-08T12:42:51.553Z,10.85
2018-01-08T12:45:25.918Z,10.78
2018-01-08T12:47:54.978Z,10.69
2018-01-08T12:50:28.174Z,9.06
2018-01-08T12:53:02.523Z,9.21
2018-01-08T12:55:31.546Z,9.61
2018-01-08T12:58:03.867Z,9.58
2018-01-08T13:00:34.446Z,9.74
2018-01-08T13:03:03.562Z,10.53
2018-01-08T13:05:32.590Z,9.47
2018-01-08T13:08:03.916Z,8.55
2018-01-08T13:10:32.940Z,8.37
2018-01-08T13:13:02.905Z,8.25
2018-01-08T13:15:32.935Z,8.17
2018-01-08T13:18:05.234Z,8.28
2018-01-08T13:20:36.443Z,7.85
2018-01-08T13:23:09.911Z,7.63
2018-01-08T13:25:39.519Z,7.95
2018-01-08T13:28:08.568Z,8.25
2018-01-08T13:30:37.606Z,8.13
2018-01-08T13:33:07.754Z,8.85
2018-01-08T13:35:36.814Z,9.35
2018-01-08T13:38:10.367Z,10.00
2018-01-08T13:40:40.609Z,9.41
2018-01-08T13:43:16.637Z,10.35
2018-01-08T13:45:45.725Z,10.90
2018-01-08T13:50:51.224Z,8.79
2018-01-08T13:58:34.714Z,7.51
2018-01-08T14:01:03.761Z,7.14
2018-01-08T14:03:33.162Z,7.29
2018-01-08T14:06:08.001Z,7.70
2018-01-08T14:08:37.262Z,7.63
2018-01-08T14:11:06.341Z,7.46
2018-01-08T14:13:36.353Z,7.24
2018-01-08T14:18:40.623Z,7.33
2018-01-08T14:21:10.707Z,7.13
2018-01-08T14:26:15.254Z,6.86
2018-01-08T14:28:52.682Z,6.73
2018-01-08T14:31:32.830Z,6.51
2018-01-08T14:36:41.937Z,6.59
2018-01-08T14:39:11.998Z,6.58
2018-01-08T14:41:41.080Z,6.50
2018-01-08T14:44:10.166Z,6.46
2018-01-08T14:46:51.060Z,6.45
2018-01-08T14:49:23.109Z,6.51
2018-01-08T14:51:55.896Z,6.42
2018-01-08T14:54:34.812Z,6.52
2018-01-08T14:57:04.447Z,6.43
2018-01-08T14:59:33.473Z,6.38
2018-01-08T15:02:02.965Z,6.43
2018-01-08T15:07:07.190Z,6.35
2018-01-08T15:09:36.289Z,6.48
2018-01-08T15:12:05.346Z,6.39
2018-01-08T15:14:38.150Z,6.20
2018-01-08T15:17:07.200Z,6.25
2018-01-08T15:19:48.358Z,6.38
2018-01-08T15:24:52.606Z,6.09
2018-01-08T15:29:57.314Z,6.25
2018-01-08T15:32:26.359Z,6.25
2018-01-08T15:34:55.398Z,6.25
2018-01-08T15:37:24.450Z,6.39
2018-01-08T15:39:55.454Z,6.39
2018-01-08T15:42:39.494Z,6.00
2018-01-08T15:45:08.578Z,6.02
2018-01-08T15:47:37.620Z,6.04
2018-01-08T15:52:42.839Z,6.02
2018-01-08T15:55:11.875Z,5.92
2018-01-08T15:57:42.882Z,6.04
2018-01-08T16:00:18.277Z,5.98
2018-01-08T16:02:49.282Z,5.99
2018-01-08T16:05:19.232Z,6.03
2018-01-08T16:07:53.192Z,6.08
2018-01-08T16:10:22.241Z,6.02
2018-01-08T16:15:26.612Z,6.03
2018-01-08T16:17:57.310Z,6.06
2018-01-08T16:20:26.588Z,6.06
2018-01-08T16:25:31.225Z,5.98
2018-01-08T16:28:03.454Z,5.94
2018-01-08T16:30:32.524Z,5.90
2018-01-08T16:33:01.541Z,5.83
2018-01-08T16:35:31.208Z,5.97
2018-01-08T16:40:35.473Z,5.86
2018-01-08T16:43:08.680Z,5.87
2018-01-08T16:45:37.845Z,5.78
2018-01-08T16:48:07.863Z,5.68
2018-01-08T16:53:18.133Z,5.84
2018-01-08T16:55:47.177Z,5.71
2018-01-08T16:58:20.746Z,5.65
2018-01-08T17:01:04.169Z,5.65
2018-01-08T17:03:33.241Z,5.57
2018-01-08T17:08:38.536Z,5.63
2018-01-08T17:11:11.346Z,5.59
2018-01-08T17:13:40.401Z,5.51
2018-01-08T17:16:10.891Z,5.52
2018-01-08T17:18:41.882Z,5.60
2018-01-08T17:21:19.569Z,5.25
2018-01-08T17:26:28.373Z,5.20
2018-01-08T17:29:00.437Z,5.05
2018-01-08T17:31:42.998Z,5.00
2018-01-08T17:34:12.033Z,4.94
2018-01-08T17:36:41.081Z,5.00
2018-01-08T17:39:10.115Z,4.95
2018-01-08T17:41:40.095Z,5.02
2018-01-08T17:44:10.594Z,5.11
2018-01-08T17:46:43.021Z,5.11
2018-01-08T17:49:18.457Z,5.15
2018-01-08T17:51:47.488Z,5.24
2018-01-08T17:56:53.483Z,5.41
2018-01-08T17:59:25.602Z,5.38
2018-01-08T18:01:54.663Z,5.18
2018-01-08T18:04:23.709Z,5.05
2018-01-08T18:06:55.606Z,5.03
2018-01-08T18:11:59.965Z,5.00
2018-01-08T18:14:30.960Z,4.79
2018-01-08T18:17:00.231Z,4.72
2018-01-08T18:27:27.038Z,4.78
2018-01-08T18:29:58.046Z,4.83
2018-01-08T18:32:38.857Z,4.69
2018-01-08T18:35:07.901Z,4.69
2018-01-08T18:40:13.471Z,4.85
2018-01-08T18:42:43.397Z,4.84
2018-01-08T18:45:12.438Z,4.90
2018-01-08T18:47:43.121Z,4.84
2018-01-08T18:50:16.573Z,4.92
2018-01-08T18:52:45.629Z,4.83
2018-01-08T18:55:17.276Z,4.78
2018-01-08T18:57:48.037Z,4.75
2018-01-08T19:00:17.130Z,4.75
2018-01-08T19:02:51.418Z,4.80
2018-01-08T19:05:20.472Z,4.73
2018-01-08T19:10:26.870Z,4.84
2018-01-08T19:15:31.181Z,4.81
2018-01-08T19:18:03.992Z,4.73
2018-01-08T19:20:34.014Z,4.87
2018-01-08T19:23:03.174Z,4.79
2018-01-08T19:25:32.446Z,4.88
2018-01-08T19:28:03.599Z,4.83
2018-01-08T19:30:33.432Z,4.83
2018-01-08T19:33:03.807Z,4.74
2018-01-08T19:38:09.175Z,4.63
2018-01-08T19:40:45.249Z,4.64
2018-01-08T19:43:14.776Z,4.77
2018-01-08T19:46:02.651Z,4.70
2018-01-08T19:48:42.068Z,4.66
2018-01-08T19:51:11.835Z,4.69
2018-01-08T19:53:45.506Z,4.64
2018-01-08T19:56:14.560Z,4.65
2018-01-08T19:58:44.567Z,4.73
2018-01-08T20:01:14.535Z,4.72
2018-01-08T20:03:46.549Z,4.72
2018-01-08T20:06:15.581Z,4.83
2018-01-08T20:08:44.614Z,4.62
2018-01-08T20:11:13.753Z,4.65
2018-01-08T20:13:44.786Z,4.68
2018-01-08T20:16:13.880Z,4.65
2018-01-08T20:19:04.260Z,4.73
2018-01-08T20:21:42.253Z,4.72
2018-01-08T20:24:11.303Z,4.73
2018-01-08T20:29:16.897Z,4.64
2018-01-08T20:31:46.006Z,4.74
2018-01-08T20:34:16.006Z,4.67
2018-01-08T20:36:45.081Z,4.72
2018-01-08T20:39:14.187Z,4.69
2018-01-08T20:42:06.021Z,4.77
2018-01-08T20:44:35.063Z,4.68
2018-01-08T20:47:04.114Z,4.71
2018-01-08T20:49:38.958Z,4.66
2018-01-08T20:52:09.936Z,4.67
2018-01-08T20:54:38.988Z,4.75
2018-01-08T20:57:21.722Z,4.87
2018-01-08T21:05:10.303Z,4.62
2018-01-08T21:07:40.254Z,4.64
2018-01-08T21:10:14.186Z,4.67
2018-01-08T21:12:43.230Z,4.58
2018-01-08T21:15:12.276Z,4.54
2018-01-08T21:17:41.322Z,4.69
2018-01-08T21:20:10.351Z,4.75
2018-01-08T21:22:39.454Z,4.66
2018-01-08T21:25:08.492Z,4.83
2018-01-08T21:27:37.527Z,4.76
2018-01-08T21:30:06.578Z,4.60
2018-01-08T21:32:35.625Z,4.57
2018-01-08T21:35:04.662Z,4.62
2018-01-08T21:37:33.698Z,4.61
2018-01-08T21:40:23.993Z,4.60
2018-01-08T21:42:56.157Z,4.65
2018-01-08T21:45:27.362Z,4.53
2018-01-08T21:48:00.530Z,4.53
2018-01-08T21:50:29.630Z,4.53
2018-01-08T21:53:16.211Z,4.57
2018-01-08T21:55:45.250Z,4.68
2018-01-08T21:58:14.285Z,4.88
2018-01-08T22:00:43.346Z,4.90
2018-01-08T22:03:13.359Z,4.92
2018-01-08T22:05:42.394Z,4.80
2018-01-08T22:10:46.633Z,4.69
2018-01-08T22:15:50.850Z,4.93
2018-01-08T22:18:33.583Z,4.90
2018-01-08T22:21:02.628Z,4.80
2018-01-08T22:23:31.666Z,4.51
2018-01-08T22:26:00.709Z,4.38
2018-01-08T22:28:30.742Z,4.44
2018-01-08T22:30:59.820Z,4.65
2018-01-08T22:33:28.849Z,4.76
2018-01-08T22:35:57.898Z,4.88
2018-01-08T22:38:27.846Z,4.89
2018-01-08T22:43:44.278Z,4.98
2018-01-08T22:46:14.293Z,4.95
2018-01-08T22:48:43.519Z,4.71
2018-01-08T22:51:13.525Z,4.67
2018-01-08T22:53:42.641Z,4.68
2018-01-08T22:56:16.526Z,4.68
2018-01-08T22:58:45.564Z,4.53
2018-01-08T23:01:32.398Z,4.64
2018-01-08T23:04:01.472Z,4.62
2018-01-08T23:06:34.218Z,4.52
2018-01-08T23:09:03.288Z,4.43
2018-01-08T23:11:32.333Z,4.40
2018-01-08T23:14:01.385Z,4.49
2018-01-08T23:16:38.526Z,4.47
2018-01-08T23:19:07.611Z,4.23
2018-01-08T23:21:40.197Z,4.37
2018-01-08T23:24:09.230Z,4.41
2018-01-08T23:26:51.477Z,4.44
2018-01-08T23:29:21.483Z,4.30
2018-01-08T23:34:37.810Z,4.45
2018-01-08T23:37:06.866Z,4.55
2018-01-08T23:44:46.631Z,4.55
2018-01-08T23:47:15.646Z,4.61
2018-01-08T23:49:48.449Z,4.51
2018-01-08T23:52:17.507Z,4.59
2018-01-08T23:54:47.610Z,4.53
2018-01-08T23:57:17.573Z,4.59
2018-01-08T23:59:50.518Z,4.34
